JAL2124 RJCH-RJOO
Flight info
| Callsign | JAL2124 |
|---|---|
| Flight time | 1h 46m |
| Altitude | 38000 |
| Route | TAPPI Y12 ARIKA Y14 GOLDO Y381 KMC Y384 ROKKO KAMEO OTABE ABENO IKOMA |
| Aircraft | E190/M-SDE3GILORVW/S |
Departure
| Time | 2026-05-04 06:03 |
|---|---|
| Airport | Hakodate Airport (RJCH) |
Arrival
| Time | 2026-05-04 07:49 |
|---|---|
| Airport | Osaka Itami International Airport (RJOO) |
| Time | Latitude | Longitude | Altitude | Speed | Heading |
|---|---|---|---|---|---|
| 2026-05-04 05:38 | 41.77461 | 140.81692 | 119 ft | 0 kts | 18° |
| 2026-05-04 05:53 | 41.77454 | 140.81689 | 119 ft | 2 kts | 18° |
| 2026-05-04 05:54 | 41.77422 | 140.81666 | 118 ft | 0 kts | 65° |
| 2026-05-04 05:56 | 41.77422 | 140.81669 | 118 ft | 1 kts | 70° |
| 2026-05-04 05:56 | 41.77407 | 140.81694 | 118 ft | 6 kts | 156° |
| 2026-05-04 05:56 | 41.77350 | 140.81727 | 120 ft | 12 kts | 157° |
| 2026-05-04 05:57 | 41.77284 | 140.81812 | 123 ft | 15 kts | 109° |
| 2026-05-04 05:57 | 41.77250 | 140.81954 | 123 ft | 17 kts | 109° |
| 2026-05-04 05:57 | 41.77208 | 140.82120 | 123 ft | 20 kts | 107° |
| 2026-05-04 05:57 | 41.77168 | 140.82295 | 128 ft | 19 kts | 108° |
| 2026-05-04 05:58 | 41.77124 | 140.82470 | 131 ft | 20 kts | 108° |
| 2026-05-04 05:58 | 41.77081 | 140.82648 | 136 ft | 20 kts | 108° |
| 2026-05-04 05:58 | 41.77037 | 140.82831 | 137 ft | 22 kts | 107° |
| 2026-05-04 05:58 | 41.76988 | 140.83025 | 142 ft | 22 kts | 109° |
| 2026-05-04 05:59 | 41.76941 | 140.83226 | 143 ft | 23 kts | 108° |
| 2026-05-04 05:59 | 41.76891 | 140.83428 | 145 ft | 23 kts | 108° |
| 2026-05-04 05:59 | 41.76841 | 140.83632 | 149 ft | 22 kts | 107° |
| 2026-05-04 05:59 | 41.76797 | 140.83816 | 157 ft | 19 kts | 108° |
| 2026-05-04 06:00 | 41.76734 | 140.83955 | 160 ft | 17 kts | 165° |
| 2026-05-04 06:00 | 41.76625 | 140.83906 | 159 ft | 17 kts | 227° |
| 2026-05-04 06:00 | 41.76624 | 140.83818 | 155 ft | 0 kts | 287° |
| 2026-05-04 06:00 | 41.76639 | 140.83756 | 154 ft | 24 kts | 287° |
| 2026-05-04 06:01 | 41.76772 | 140.83217 | 142 ft | 97 kts | 288° |
| 2026-05-04 06:01 | 41.77041 | 140.82091 | 154 ft | 153 kts | 282° |
| 2026-05-04 06:03 | 41.72462 | 140.73647 | 4359 ft | 217 kts | 223° |
| 2026-05-04 06:03 | 41.71242 | 140.72378 | 4974 ft | 227 kts | 223° |
| 2026-05-04 06:05 | 41.62054 | 140.62857 | 9662 ft | 248 kts | 221° |
| 2026-05-04 06:05 | 41.59210 | 140.59983 | 10501 ft | 270 kts | 220° |
| 2026-05-04 06:05 | 41.57676 | 140.58459 | 10923 ft | 279 kts | 220° |
| 2026-05-04 06:06 | 41.56110 | 140.56896 | 11491 ft | 283 kts | 220° |
| 2026-05-04 06:06 | 41.54526 | 140.55314 | 12087 ft | 286 kts | 220° |
| 2026-05-04 06:06 | 41.52921 | 140.53719 | 12700 ft | 289 kts | 220° |
| 2026-05-04 06:06 | 41.51303 | 140.52115 | 13305 ft | 291 kts | 220° |
| 2026-05-04 06:07 | 41.49672 | 140.50506 | 13914 ft | 291 kts | 219° |
| 2026-05-04 06:07 | 41.48042 | 140.48899 | 14545 ft | 291 kts | 219° |
| 2026-05-04 06:07 | 41.46438 | 140.47322 | 15163 ft | 291 kts | 219° |
| 2026-05-04 06:07 | 41.44806 | 140.45723 | 15735 ft | 293 kts | 219° |
| 2026-05-04 06:08 | 41.43154 | 140.44121 | 16307 ft | 294 kts | 218° |
| 2026-05-04 06:08 | 41.41501 | 140.42523 | 16989 ft | 293 kts | 218° |
| 2026-05-04 06:08 | 41.39857 | 140.40930 | 17728 ft | 292 kts | 218° |
| 2026-05-04 06:08 | 41.38221 | 140.39350 | 18408 ft | 289 kts | 218° |
| 2026-05-04 06:09 | 41.36603 | 140.37790 | 19150 ft | 285 kts | 218° |
| 2026-05-04 06:09 | 41.35003 | 140.36251 | 19893 ft | 283 kts | 218° |
| 2026-05-04 06:11 | 41.23881 | 140.25836 | 23976 ft | 277 kts | 218° |
| 2026-05-04 06:11 | 41.22296 | 140.24383 | 24431 ft | 276 kts | 218° |
| 2026-05-04 06:13 | 41.10694 | 140.15645 | 27367 ft | 283 kts | 207° |
| 2026-05-04 06:14 | 40.99327 | 140.11443 | 29628 ft | 283 kts | 206° |
| 2026-05-04 06:14 | 40.97389 | 140.10761 | 29797 ft | 286 kts | 206° |
| 2026-05-04 06:15 | 40.95489 | 140.10098 | 30041 ft | 286 kts | 206° |
| 2026-05-04 06:15 | 40.93561 | 140.09429 | 30272 ft | 288 kts | 206° |
| 2026-05-04 06:15 | 40.91602 | 140.08748 | 30379 ft | 292 kts | 206° |
| 2026-05-04 06:15 | 40.89632 | 140.08069 | 30615 ft | 292 kts | 206° |
| 2026-05-04 06:16 | 40.87667 | 140.07394 | 30904 ft | 292 kts | 206° |
| 2026-05-04 06:16 | 40.85684 | 140.06707 | 30989 ft | 296 kts | 206° |
| 2026-05-04 06:16 | 40.83684 | 140.06022 | 31201 ft | 297 kts | 206° |
| 2026-05-04 06:16 | 40.81680 | 140.05336 | 31502 ft | 296 kts | 206° |
| 2026-05-04 06:17 | 40.79690 | 140.04654 | 31797 ft | 295 kts | 206° |
| 2026-05-04 06:17 | 40.77708 | 140.03975 | 32090 ft | 294 kts | 207° |
| 2026-05-04 06:17 | 40.75737 | 140.03300 | 32382 ft | 292 kts | 207° |
| 2026-05-04 06:17 | 40.73768 | 140.02626 | 32672 ft | 292 kts | 207° |
| 2026-05-04 06:18 | 40.71807 | 140.01956 | 32955 ft | 291 kts | 207° |
| 2026-05-04 06:18 | 40.69848 | 140.01286 | 33235 ft | 291 kts | 207° |
| 2026-05-04 06:18 | 40.67894 | 140.00619 | 33537 ft | 290 kts | 207° |
| 2026-05-04 06:20 | 40.53970 | 139.95882 | 34595 ft | 301 kts | 206° |
| 2026-05-04 06:20 | 40.51932 | 139.95192 | 34756 ft | 303 kts | 206° |
| 2026-05-04 06:21 | 40.43853 | 139.92069 | 35292 ft | 294 kts | 217° |
| 2026-05-04 06:21 | 40.42033 | 139.90800 | 35422 ft | 299 kts | 213° |
| 2026-05-04 06:22 | 40.40145 | 139.89647 | 35536 ft | 300 kts | 213° |
| 2026-05-04 06:22 | 40.38259 | 139.88460 | 35653 ft | 301 kts | 214° |
| 2026-05-04 06:25 | 40.13495 | 139.72062 | 37098 ft | 313 kts | 214° |
| 2026-05-04 06:25 | 40.11549 | 139.70772 | 37199 ft | 314 kts | 213° |
| 2026-05-04 06:26 | 40.09596 | 139.69479 | 37302 ft | 315 kts | 213° |
| 2026-05-04 06:26 | 40.05683 | 139.66892 | 37683 ft | 311 kts | 213° |
| 2026-05-04 06:27 | 39.95718 | 139.60388 | 37577 ft | 329 kts | 213° |
| 2026-05-04 06:28 | 39.91607 | 139.57715 | 37566 ft | 335 kts | 213° |
| 2026-05-04 06:28 | 39.87398 | 139.54983 | 37565 ft | 340 kts | 213° |
| 2026-05-04 06:29 | 39.83125 | 139.52214 | 37570 ft | 345 kts | 213° |
| 2026-05-04 06:29 | 39.78794 | 139.49410 | 37572 ft | 350 kts | 213° |
| 2026-05-04 06:30 | 39.74405 | 139.46573 | 37576 ft | 353 kts | 213° |
| 2026-05-04 06:30 | 39.69994 | 139.43727 | 37578 ft | 354 kts | 213° |
| 2026-05-04 06:31 | 39.65579 | 139.40883 | 37584 ft | 354 kts | 213° |
| 2026-05-04 06:31 | 39.61170 | 139.38045 | 37583 ft | 354 kts | 213° |
| 2026-05-04 06:33 | 39.43549 | 139.26743 | 37606 ft | 353 kts | 213° |
| 2026-05-04 06:34 | 39.39139 | 139.23925 | 37609 ft | 353 kts | 213° |
| 2026-05-04 06:34 | 39.34739 | 139.21116 | 37614 ft | 353 kts | 213° |
| 2026-05-04 06:36 | 39.17171 | 139.09942 | 37629 ft | 352 kts | 213° |
| 2026-05-04 06:37 | 39.12773 | 139.07156 | 37632 ft | 352 kts | 213° |
| 2026-05-04 06:37 | 39.08416 | 139.04399 | 37633 ft | 351 kts | 213° |
| 2026-05-04 06:38 | 39.04033 | 139.01629 | 37639 ft | 351 kts | 213° |
| 2026-05-04 06:40 | 38.87242 | 138.91052 | 37655 ft | 350 kts | 213° |
| 2026-05-04 06:40 | 38.82860 | 138.88301 | 37660 ft | 350 kts | 213° |
| 2026-05-04 06:41 | 38.78477 | 138.85555 | 37663 ft | 350 kts | 213° |
| 2026-05-04 06:41 | 38.74103 | 138.82815 | 37671 ft | 350 kts | 213° |
| 2026-05-04 06:42 | 38.69723 | 138.80077 | 37670 ft | 350 kts | 213° |
| 2026-05-04 06:44 | 38.52279 | 138.69209 | 37683 ft | 348 kts | 214° |
| 2026-05-04 06:44 | 38.47919 | 138.66501 | 37684 ft | 348 kts | 214° |
| 2026-05-04 06:45 | 38.43552 | 138.63793 | 37689 ft | 348 kts | 214° |
| 2026-05-04 06:45 | 38.39329 | 138.61177 | 37691 ft | 349 kts | 214° |
| 2026-05-04 06:46 | 38.34958 | 138.58474 | 37695 ft | 349 kts | 214° |
| 2026-05-04 06:46 | 38.30585 | 138.55774 | 37698 ft | 349 kts | 214° |
| 2026-05-04 06:48 | 38.13117 | 138.45020 | 37711 ft | 350 kts | 214° |
| 2026-05-04 06:50 | 37.98165 | 138.30578 | 37716 ft | 336 kts | 227° |
| 2026-05-04 06:51 | 37.94798 | 138.26463 | 37713 ft | 336 kts | 228° |
| 2026-05-04 06:51 | 37.91438 | 138.22332 | 37727 ft | 337 kts | 228° |
| 2026-05-04 06:52 | 37.88075 | 138.18196 | 37729 ft | 337 kts | 228° |
| 2026-05-04 06:52 | 37.84706 | 138.14055 | 37738 ft | 338 kts | 228° |
| 2026-05-04 06:53 | 37.81330 | 138.09909 | 37735 ft | 338 kts | 228° |
| 2026-05-04 06:53 | 37.77971 | 138.05789 | 37738 ft | 339 kts | 228° |
| 2026-05-04 06:54 | 37.74580 | 138.01636 | 37745 ft | 339 kts | 228° |
| 2026-05-04 06:54 | 37.71184 | 137.97481 | 37747 ft | 340 kts | 228° |
| 2026-05-04 06:55 | 37.67780 | 137.93323 | 37749 ft | 341 kts | 228° |
| 2026-05-04 06:55 | 37.64368 | 137.89161 | 37751 ft | 341 kts | 228° |
| 2026-05-04 06:57 | 37.50722 | 137.72569 | 37759 ft | 340 kts | 228° |
| 2026-05-04 06:58 | 37.47311 | 137.68435 | 37764 ft | 340 kts | 229° |
| 2026-05-04 06:58 | 37.43925 | 137.64338 | 37767 ft | 340 kts | 229° |
| 2026-05-04 06:59 | 37.40517 | 137.60220 | 37771 ft | 340 kts | 229° |
| 2026-05-04 06:59 | 37.37110 | 137.56107 | 37770 ft | 339 kts | 229° |
| 2026-05-04 07:01 | 37.23540 | 137.39783 | 37791 ft | 336 kts | 229° |
| 2026-05-04 07:02 | 37.20170 | 137.35741 | 37790 ft | 334 kts | 229° |
| 2026-05-04 07:02 | 37.16814 | 137.31723 | 37791 ft | 332 kts | 229° |
| 2026-05-04 07:03 | 37.13482 | 137.27737 | 37792 ft | 330 kts | 229° |
| 2026-05-04 07:03 | 37.10156 | 137.23764 | 37790 ft | 330 kts | 229° |
| 2026-05-04 07:04 | 37.06830 | 137.19796 | 37797 ft | 330 kts | 229° |
| 2026-05-04 07:04 | 37.03491 | 137.15819 | 37798 ft | 331 kts | 229° |
| 2026-05-04 07:05 | 37.00180 | 137.11879 | 37808 ft | 330 kts | 229° |
| 2026-05-04 07:05 | 36.96851 | 137.07922 | 37823 ft | 330 kts | 229° |
| 2026-05-04 07:06 | 36.91846 | 137.01981 | 37826 ft | 331 kts | 229° |
| 2026-05-04 07:07 | 36.88497 | 136.98014 | 37826 ft | 332 kts | 229° |
| 2026-05-04 07:09 | 36.75109 | 136.82163 | 37828 ft | 332 kts | 229° |
| 2026-05-04 07:09 | 36.71755 | 136.78195 | 37831 ft | 332 kts | 229° |
| 2026-05-04 07:10 | 36.68402 | 136.74227 | 37842 ft | 332 kts | 229° |
| 2026-05-04 07:12 | 36.54995 | 136.58422 | 37869 ft | 332 kts | 229° |
| 2026-05-04 07:12 | 36.51641 | 136.54481 | 37878 ft | 332 kts | 229° |
| 2026-05-04 07:13 | 36.48311 | 136.50572 | 37881 ft | 331 kts | 229° |
| 2026-05-04 07:13 | 36.44957 | 136.46641 | 37888 ft | 331 kts | 229° |
| 2026-05-04 07:14 | 36.36092 | 136.37410 | 37894 ft | 336 kts | 224° |
| 2026-05-04 07:15 | 36.32315 | 136.33997 | 37807 ft | 336 kts | 224° |
| 2026-05-04 07:15 | 36.30443 | 136.32342 | 37523 ft | 323 kts | 224° |
| 2026-05-04 07:15 | 36.28654 | 136.30770 | 37334 ft | 309 kts | 224° |
| 2026-05-04 07:16 | 36.26927 | 136.29248 | 36954 ft | 302 kts | 224° |
| 2026-05-04 07:16 | 36.25226 | 136.27745 | 36584 ft | 298 kts | 224° |
| 2026-05-04 07:16 | 36.23539 | 136.26256 | 36168 ft | 299 kts | 224° |
| 2026-05-04 07:16 | 36.21839 | 136.24757 | 35781 ft | 300 kts | 223° |
| 2026-05-04 07:17 | 36.20129 | 136.23252 | 35359 ft | 302 kts | 223° |
| 2026-05-04 07:17 | 36.18413 | 136.21745 | 34957 ft | 303 kts | 223° |
| 2026-05-04 07:17 | 36.16687 | 136.20232 | 34548 ft | 304 kts | 223° |
| 2026-05-04 07:17 | 36.14962 | 136.18721 | 34124 ft | 305 kts | 223° |
| 2026-05-04 07:18 | 36.13229 | 136.17204 | 33695 ft | 305 kts | 223° |
| 2026-05-04 07:18 | 36.11494 | 136.15689 | 33287 ft | 306 kts | 223° |
| 2026-05-04 07:18 | 36.09747 | 136.14167 | 32885 ft | 309 kts | 222° |
| 2026-05-04 07:18 | 36.07981 | 136.12627 | 32464 ft | 312 kts | 223° |
| 2026-05-04 07:19 | 36.06197 | 136.11074 | 32058 ft | 315 kts | 223° |
| 2026-05-04 07:19 | 36.04418 | 136.09528 | 31640 ft | 318 kts | 223° |
| 2026-05-04 07:19 | 36.02599 | 136.07946 | 31221 ft | 320 kts | 223° |
| 2026-05-04 07:19 | 36.00772 | 136.06361 | 30794 ft | 322 kts | 223° |
| 2026-05-04 07:20 | 35.98929 | 136.04761 | 30371 ft | 325 kts | 223° |
| 2026-05-04 07:20 | 35.97067 | 136.03142 | 29919 ft | 330 kts | 223° |
| 2026-05-04 07:20 | 35.95180 | 136.01505 | 29489 ft | 331 kts | 223° |
| 2026-05-04 07:20 | 35.93286 | 135.99865 | 29046 ft | 334 kts | 223° |
| 2026-05-04 07:22 | 35.79939 | 135.88331 | 25930 ft | 331 kts | 223° |
| 2026-05-04 07:22 | 35.78053 | 135.86704 | 25495 ft | 330 kts | 223° |
| 2026-05-04 07:23 | 35.76172 | 135.85083 | 25057 ft | 329 kts | 223° |
| 2026-05-04 07:23 | 35.74321 | 135.83488 | 24624 ft | 329 kts | 223° |
| 2026-05-04 07:23 | 35.72446 | 135.81873 | 24193 ft | 328 kts | 223° |
| 2026-05-04 07:23 | 35.70577 | 135.80264 | 23754 ft | 328 kts | 223° |
| 2026-05-04 07:24 | 35.68707 | 135.78655 | 23291 ft | 327 kts | 223° |
| 2026-05-04 07:24 | 35.66842 | 135.77053 | 22886 ft | 325 kts | 223° |
| 2026-05-04 07:24 | 35.64992 | 135.75462 | 22443 ft | 325 kts | 223° |
| 2026-05-04 07:24 | 35.63148 | 135.73878 | 22018 ft | 324 kts | 223° |
| 2026-05-04 07:25 | 35.61297 | 135.72289 | 21590 ft | 323 kts | 223° |
| 2026-05-04 07:26 | 35.49108 | 135.61851 | 18537 ft | 315 kts | 221° |
| 2026-05-04 07:27 | 35.47313 | 135.60319 | 18111 ft | 314 kts | 221° |
| 2026-05-04 07:27 | 35.45528 | 135.58793 | 17731 ft | 312 kts | 221° |
| 2026-05-04 07:27 | 35.43736 | 135.57264 | 17322 ft | 315 kts | 221° |
| 2026-05-04 07:27 | 35.41925 | 135.55726 | 16909 ft | 318 kts | 221° |
| 2026-05-04 07:28 | 35.40112 | 135.54179 | 16495 ft | 318 kts | 221° |
| 2026-05-04 07:28 | 35.38329 | 135.52659 | 16069 ft | 316 kts | 221° |
| 2026-05-04 07:28 | 35.36513 | 135.51112 | 15706 ft | 320 kts | 221° |
| 2026-05-04 07:28 | 35.34679 | 135.49552 | 15271 ft | 321 kts | 221° |
| 2026-05-04 07:29 | 35.32840 | 135.47989 | 14860 ft | 322 kts | 221° |
| 2026-05-04 07:29 | 35.31006 | 135.46433 | 14439 ft | 318 kts | 221° |
| 2026-05-04 07:29 | 35.29208 | 135.44908 | 14030 ft | 308 kts | 221° |
| 2026-05-04 07:29 | 35.27490 | 135.43451 | 13840 ft | 298 kts | 221° |
| 2026-05-04 07:30 | 35.25773 | 135.41989 | 13383 ft | 302 kts | 222° |
| 2026-05-04 07:30 | 35.24054 | 135.40528 | 13041 ft | 301 kts | 221° |
| 2026-05-04 07:30 | 35.22331 | 135.39063 | 12641 ft | 302 kts | 221° |
| 2026-05-04 07:30 | 35.20605 | 135.37598 | 12253 ft | 302 kts | 221° |
| 2026-05-04 07:31 | 35.18881 | 135.36141 | 11854 ft | 301 kts | 221° |
| 2026-05-04 07:31 | 35.17183 | 135.34703 | 11467 ft | 299 kts | 221° |
| 2026-05-04 07:33 | 35.04457 | 135.37368 | 10503 ft | 324 kts | 143° |
| 2026-05-04 07:33 | 35.02763 | 135.39156 | 10223 ft | 320 kts | 143° |
| 2026-05-04 07:33 | 35.01086 | 135.40860 | 9957 ft | 317 kts | 145° |
| 2026-05-04 07:33 | 34.99341 | 135.42556 | 9706 ft | 313 kts | 144° |
| 2026-05-04 07:34 | 34.97651 | 135.44212 | 9475 ft | 311 kts | 144° |
| 2026-05-04 07:34 | 34.95971 | 135.45883 | 9247 ft | 312 kts | 144° |
| 2026-05-04 07:34 | 34.94296 | 135.47569 | 9029 ft | 312 kts | 143° |
| 2026-05-04 07:34 | 34.92634 | 135.49242 | 8807 ft | 309 kts | 143° |
| 2026-05-04 07:35 | 34.90972 | 135.50911 | 8586 ft | 308 kts | 143° |
| 2026-05-04 07:35 | 34.89321 | 135.52563 | 8376 ft | 306 kts | 144° |
| 2026-05-04 07:35 | 34.87703 | 135.54189 | 8170 ft | 306 kts | 143° |
| 2026-05-04 07:35 | 34.86041 | 135.55870 | 7970 ft | 306 kts | 143° |
| 2026-05-04 07:36 | 34.84403 | 135.57516 | 7763 ft | 305 kts | 143° |
| 2026-05-04 07:36 | 34.82795 | 135.59130 | 7547 ft | 302 kts | 143° |
| 2026-05-04 07:38 | 34.71505 | 135.70407 | 5950 ft | 299 kts | 143° |
| 2026-05-04 07:38 | 34.69911 | 135.72003 | 5601 ft | 294 kts | 143° |
| 2026-05-04 07:38 | 34.68360 | 135.73559 | 5255 ft | 284 kts | 144° |
| 2026-05-04 07:38 | 34.66820 | 135.75010 | 4916 ft | 276 kts | 155° |
| 2026-05-04 07:39 | 34.65051 | 135.75587 | 4526 ft | 253 kts | 191° |
| 2026-05-04 07:39 | 34.63523 | 135.74912 | 4325 ft | 224 kts | 224° |
| 2026-05-04 07:39 | 34.62459 | 135.73621 | 4094 ft | 212 kts | 234° |
| 2026-05-04 07:39 | 34.61475 | 135.72342 | 3801 ft | 202 kts | 232° |
| 2026-05-04 07:40 | 34.60479 | 135.71219 | 3680 ft | 188 kts | 232° |
| 2026-05-04 07:40 | 34.59829 | 135.69974 | 3568 ft | 166 kts | 258° |
| 2026-05-04 07:40 | 34.59765 | 135.68654 | 3514 ft | 155 kts | 282° |
| 2026-05-04 07:40 | 34.60065 | 135.67406 | 3515 ft | 154 kts | 286° |
| 2026-05-04 07:41 | 34.60350 | 135.66135 | 3528 ft | 158 kts | 285° |
| 2026-05-04 07:41 | 34.60876 | 135.64951 | 3549 ft | 164 kts | 310° |
| 2026-05-04 07:41 | 34.61742 | 135.64024 | 3617 ft | 167 kts | 313° |
| 2026-05-04 07:41 | 34.62549 | 135.63013 | 3532 ft | 167 kts | 309° |
| 2026-05-04 07:42 | 34.63348 | 135.62010 | 3494 ft | 163 kts | 311° |
| 2026-05-04 07:42 | 34.64164 | 135.61050 | 3489 ft | 164 kts | 311° |
| 2026-05-04 07:42 | 34.64975 | 135.60059 | 3430 ft | 169 kts | 310° |
| 2026-05-04 07:42 | 34.65814 | 135.59039 | 3185 ft | 171 kts | 311° |
| 2026-05-04 07:43 | 34.66650 | 135.58033 | 2943 ft | 167 kts | 311° |
| 2026-05-04 07:43 | 34.67459 | 135.57052 | 2734 ft | 162 kts | 311° |
| 2026-05-04 07:43 | 34.68248 | 135.56093 | 2509 ft | 158 kts | 311° |
| 2026-05-04 07:43 | 34.69018 | 135.55158 | 2304 ft | 155 kts | 311° |
| 2026-05-04 07:44 | 34.69779 | 135.54237 | 2092 ft | 155 kts | 311° |
| 2026-05-04 07:44 | 34.70549 | 135.53304 | 1863 ft | 156 kts | 311° |
| 2026-05-04 07:44 | 34.71300 | 135.52392 | 1664 ft | 147 kts | 311° |
| 2026-05-04 07:44 | 34.71983 | 135.51565 | 1487 ft | 129 kts | 311° |
| 2026-05-04 07:45 | 34.72583 | 135.50832 | 1302 ft | 119 kts | 311° |
| 2026-05-04 07:45 | 34.73155 | 135.50137 | 1143 ft | 115 kts | 310° |
| 2026-05-04 07:45 | 34.73713 | 135.49459 | 1004 ft | 115 kts | 310° |
| 2026-05-04 07:45 | 34.74288 | 135.48756 | 843 ft | 119 kts | 312° |
| 2026-05-04 07:46 | 34.74888 | 135.48039 | 703 ft | 122 kts | 310° |
| 2026-05-04 07:46 | 34.75492 | 135.47293 | 546 ft | 127 kts | 311° |
| 2026-05-04 07:46 | 34.76129 | 135.46518 | 404 ft | 129 kts | 310° |
| 2026-05-04 07:46 | 34.76768 | 135.45750 | 256 ft | 127 kts | 309° |
| 2026-05-04 07:47 | 34.77378 | 135.44999 | 73 ft | 125 kts | 309° |
| 2026-05-04 07:47 | 34.77914 | 135.44339 | 47 ft | 89 kts | 315° |
| 2026-05-04 07:47 | 34.78241 | 135.43947 | 48 ft | 51 kts | 317° |
| 2026-05-04 07:49 | 34.79267 | 135.43510 | 47 ft | 10 kts | 45° |
| 2026-05-04 07:49 | 34.79295 | 135.43599 | 47 ft | 13 kts | 77° |
| 2026-05-04 07:49 | 34.79318 | 135.43678 | 47 ft | 7 kts | 96° |
| 2026-05-04 07:50 | 34.79286 | 135.43700 | 47 ft | 3 kts | 163° |
| 2026-05-04 07:50 | 34.79270 | 135.43708 | 47 ft | 0 kts | 158° |